Time;durP1;ratioP1;P1;durP2;ratioP2;P2;SDS_P1;SDS_P2;PMS_P1;PMS_P2;Temp;Humidity;BMP_temperature;BMP_pressure;BME280_temperature;BME280_humidity;BME280_pressure;Samples;Min_cycle;Max_cycle;Signal;HPM_P1;HPM_P2
2024/01/17 00:00:09;;;;;;;7.03;2.97;;;;;;;;;;4984328;28;94600;-79
2024/01/17 00:02:39;;;;;;;7.38;3.10;;;;;;;;;;4975265;28;92065;-78
2024/01/17 00:05:06;;;;;;;10.13;3.40;;;;;;;;;;4963231;28;92459;-79
2024/01/17 00:07:32;;;;;;;6.68;2.97;;;;;;;;;;4963327;28;92803;-79
2024/01/17 00:09:59;;;;;;;8.80;3.03;;;;;;;;;;4962183;28;91818;-79
2024/01/17 00:12:25;;;;;;;5.95;2.90;;;;;;;;;;4977122;28;92102;-80
2024/01/17 00:14:52;;;;;;;7.43;3.03;;;;;;;;;;4964711;28;95577;-78
2024/01/17 00:17:19;;;;;;;8.88;3.17;;;;;;;;;;4969599;28;94807;-78
2024/01/17 00:19:46;;;;;;;6.60;2.90;;;;;;;;;;4963105;28;96021;-78
2024/01/17 00:22:15;;;;;;;8.43;2.92;;;;;;;;;;4964561;28;92482;-79
2024/01/17 00:24:41;;;;;;;7.80;2.95;;;;;;;;;;4960925;28;92820;-78
2024/01/17 00:27:08;;;;;;;6.78;3.15;;;;;;;;;;4963028;28;93041;-80
2024/01/17 00:29:35;;;;;;;7.30;2.78;;;;;;;;;;4962096;28;92643;-80
2024/01/17 00:32:01;;;;;;;7.35;3.20;;;;;;;;;;4962631;28;99516;-80
2024/01/17 00:34:28;;;;;;;8.73;3.67;;;;;;;;;;4961272;28;91904;-80
2024/01/17 00:36:54;;;;;;;7.85;3.10;;;;;;;;;;4958571;28;92215;-80
2024/01/17 00:39:22;;;;;;;7.75;3.33;;;;;;;;;;4960968;28;92754;-79
2024/01/17 00:41:50;;;;;;;7.32;3.40;;;;;;;;;;4959580;28;98076;-79
2024/01/17 00:44:18;;;;;;;8.32;3.53;;;;;;;;;;4965778;28;92086;-79
2024/01/17 00:46:45;;;;;;;8.93;3.50;;;;;;;;;;4960537;28;92857;-80
2024/01/17 00:49:12;;;;;;;8.52;3.75;;;;;;;;;;4962994;28;92258;-79
2024/01/17 00:51:39;;;;;;;7.50;3.33;;;;;;;;;;4961269;28;95124;-81
2024/01/17 00:54:07;;;;;;;9.18;3.72;;;;;;;;;;4961544;28;93766;-80
2024/01/17 00:56:35;;;;;;;9.32;3.70;;;;;;;;;;4973560;28;92417;-80
2024/01/17 00:59:03;;;;;;;8.18;3.70;;;;;;;;;;4974350;28;92359;-80
2024/01/17 01:01:29;;;;;;;8.32;3.58;;;;;;;;;;4962377;28;92712;-79
2024/01/17 01:03:56;;;;;;;7.90;3.55;;;;;;;;;;4961703;28;92744;-79
2024/01/17 01:06:22;;;;;;;9.75;3.80;;;;;;;;;;4963201;28;96759;-80
2024/01/17 01:08:49;;;;;;;13.85;3.88;;;;;;;;;;4962540;28;92269;-78
2024/01/17 01:11:16;;;;;;;15.35;3.70;;;;;;;;;;4949337;28;94790;-79
2024/01/17 01:13:42;;;;;;;9.30;3.58;;;;;;;;;;4968149;28;93082;-80
2024/01/17 01:16:10;;;;;;;9.20;3.72;;;;;;;;;;4962213;28;92030;-80
2024/01/17 01:18:36;;;;;;;;;;;;;;;;;;4962514;28;92368;-79
2024/01/17 01:21:03;;;;;;;9.63;3.58;;;;;;;;;;4961587;28;111470;-79
2024/01/17 01:23:30;;;;;;;8.27;3.97;;;;;;;;;;4944877;28;91837;-79
2024/01/17 01:25:57;;;;;;;9.35;3.72;;;;;;;;;;4964011;28;92346;-79
2024/01/17 01:28:23;;;;;;;9.25;3.70;;;;;;;;;;4961240;28;92520;-79
2024/01/17 01:30:50;;;;;;;9.70;3.97;;;;;;;;;;4959248;28;95069;-80
2024/01/17 01:33:17;;;;;;;8.43;3.95;;;;;;;;;;4960699;28;94278;-80
2024/01/17 01:35:43;;;;;;;8.82;3.80;;;;;;;;;;4955568;28;92562;-80
2024/01/17 01:38:10;;;;;;;11.73;3.97;;;;;;;;;;4961608;28;93150;-79
2024/01/17 01:40:38;;;;;;;7.63;3.65;;;;;;;;;;4961301;28;92757;-79
2024/01/17 01:43:20;;;;;;;7.72;3.60;;;;;;;;;;4961797;28;92175;-80
2024/01/17 01:45:58;;;;;;;8.02;3.60;;;;;;;;;;4960625;28;93223;-79
2024/01/17 01:48:24;;;;;;;8.07;3.63;;;;;;;;;;4964594;28;91954;-79
2024/01/17 01:50:52;;;;;;;8.82;3.83;;;;;;;;;;4944017;28;94059;-80
2024/01/17 01:53:18;;;;;;;8.80;3.97;;;;;;;;;;4943597;28;94709;-80
2024/01/17 01:55:45;;;;;;;8.50;3.50;;;;;;;;;;4965955;28;94986;-79
2024/01/17 01:58:12;;;;;;;8.48;3.80;;;;;;;;;;4981177;28;94830;-79
2024/01/17 02:00:39;;;;;;;8.65;3.72;;;;;;;;;;4977688;28;93139;-79
2024/01/17 02:03:05;;;;;;;8.90;3.72;;;;;;;;;;4966498;28;92075;-79
2024/01/17 02:05:32;;;;;;;14.32;4.30;;;;;;;;;;4961363;28;92430;-79
2024/01/17 02:07:59;;;;;;;13.35;4.10;;;;;;;;;;4961378;28;92564;-79
2024/01/17 02:10:25;;;;;;;9.18;3.92;;;;;;;;;;4963308;28;92458;-79
2024/01/17 02:12:52;;;;;;;8.90;3.78;;;;;;;;;;4978232;28;92148;-79
2024/01/17 02:15:18;;;;;;;8.18;3.25;;;;;;;;;;4963476;28;92611;-78
2024/01/17 02:17:45;;;;;;;8.57;3.70;;;;;;;;;;4979413;28;92423;-79
2024/01/17 02:20:12;;;;;;;9.85;3.80;;;;;;;;;;4977872;28;95576;-78
2024/01/17 02:22:38;;;;;;;9.50;3.67;;;;;;;;;;4978398;28;92007;-79
2024/01/17 02:25:05;;;;;;;11.05;3.70;;;;;;;;;;4960951;28;92479;-80
2024/01/17 02:27:31;;;;;;;8.40;3.25;;;;;;;;;;4959483;28;92980;-79
2024/01/17 02:29:58;;;;;;;8.60;3.80;;;;;;;;;;4960101;28;92459;-79
2024/01/17 02:32:25;;;;;;;7.95;3.45;;;;;;;;;;4963227;28;92506;-79
2024/01/17 02:34:52;;;;;;;8.30;3.50;;;;;;;;;;4942630;28;92454;-78
2024/01/17 02:37:18;;;;;;;8.63;3.95;;;;;;;;;;4974927;28;92407;-78
2024/01/17 02:39:45;;;;;;;7.43;3.33;;;;;;;;;;4956046;28;92573;-79
2024/01/17 02:42:11;;;;;;;8.30;3.58;;;;;;;;;;4956131;28;92221;-78
2024/01/17 02:44:38;;;;;;;7.95;3.13;;;;;;;;;;4954102;28;94818;-79
2024/01/17 02:47:05;;;;;;;7.20;3.40;;;;;;;;;;4939346;28;95133;-78
2024/01/17 02:49:31;;;;;;;8.73;3.67;;;;;;;;;;4941635;28;92142;-78
2024/01/17 02:51:58;;;;;;;7.63;3.22;;;;;;;;;;4950230;28;93172;-80
2024/01/17 02:54:24;;;;;;;9.23;3.67;;;;;;;;;;4963446;28;93078;-81
2024/01/17 02:56:51;;;;;;;8.43;3.58;;;;;;;;;;4974414;28;92438;-79
2024/01/17 02:59:18;;;;;;;8.75;3.40;;;;;;;;;;4966448;28;93090;-79
2024/01/17 03:01:46;;;;;;;7.78;3.35;;;;;;;;;;4961000;28;91564;-80
2024/01/17 03:04:12;;;;;;;8.02;3.53;;;;;;;;;;4959812;28;92066;-79
2024/01/17 03:06:39;;;;;;;8.80;3.65;;;;;;;;;;4958233;28;93554;-80
2024/01/17 03:09:05;;;;;;;8.68;3.38;;;;;;;;;;4958021;28;95076;-80
2024/01/17 03:11:32;;;;;;;7.15;3.58;;;;;;;;;;4967109;28;97071;-80
2024/01/17 03:14:00;;;;;;;10.48;3.35;;;;;;;;;;4982525;28;94934;-80
2024/01/17 03:16:27;;;;;;;8.48;3.20;;;;;;;;;;4967967;28;92102;-81
2024/01/17 03:18:53;;;;;;;8.32;3.35;;;;;;;;;;4981218;28;92775;-79
2024/01/17 03:21:20;;;;;;;10.32;3.70;;;;;;;;;;4962160;28;92081;-79
2024/01/17 03:23:47;;;;;;;9.30;3.50;;;;;;;;;;4963306;28;92151;-79
2024/01/17 03:26:13;;;;;;;8.30;3.22;;;;;;;;;;4964289;28;92102;-79
2024/01/17 03:28:42;;;;;;;8.10;3.15;;;;;;;;;;4961830;28;92250;-80
2024/01/17 03:31:09;;;;;;;8.10;3.80;;;;;;;;;;4962750;28;92808;-78
2024/01/17 03:33:36;;;;;;;8.18;3.60;;;;;;;;;;4961514;28;95134;-79
2024/01/17 03:36:03;;;;;;;7.65;3.42;;;;;;;;;;4945817;28;92543;-81
2024/01/17 03:38:29;;;;;;;8.68;3.42;;;;;;;;;;4950379;28;93994;-79
2024/01/17 03:41:00;;;;;;;10.85;3.63;;;;;;;;;;4962267;28;92257;-80
2024/01/17 03:43:26;;;;;;;7.97;3.72;;;;;;;;;;4964350;28;92851;-80
2024/01/17 03:45:56;;;;;;;8.73;3.40;;;;;;;;;;4962156;28;95269;-79
2024/01/17 03:48:23;;;;;;;8.82;3.42;;;;;;;;;;4962487;28;92306;-79
2024/01/17 03:50:50;;;;;;;8.30;3.33;;;;;;;;;;4963999;28;92430;-79
2024/01/17 03:53:17;;;;;;;8.68;3.20;;;;;;;;;;4961875;28;92870;-79
2024/01/17 03:55:43;;;;;;;8.32;3.25;;;;;;;;;;4969308;28;92247;-80
2024/01/17 03:58:10;;;;;;;19.90;3.53;;;;;;;;;;4982728;28;94809;-79
2024/01/17 04:00:36;;;;;;;7.13;3.03;;;;;;;;;;4981920;28;92199;-80
2024/01/17 04:03:03;;;;;;;8.30;3.40;;;;;;;;;;4964902;28;92511;-79
2024/01/17 04:05:30;;;;;;;8.20;2.90;;;;;;;;;;4961586;28;95363;-80
2024/01/17 04:07:56;;;;;;;7.82;3.50;;;;;;;;;;4961949;28;92296;-79
2024/01/17 04:10:23;;;;;;;6.28;3.00;;;;;;;;;;4944292;28;94631;-80
2024/01/17 04:12:49;;;;;;;7.43;3.15;;;;;;;;;;4960666;28;95596;-78
2024/01/17 04:15:16;;;;;;;8.43;3.20;;;;;;;;;;4963170;28;91531;-79
2024/01/17 04:17:42;;;;;;;8.32;2.80;;;;;;;;;;4961087;28;94101;-78
2024/01/17 04:20:09;;;;;;;7.30;2.97;;;;;;;;;;4965775;28;92460;-78
2024/01/17 04:22:36;;;;;;;6.65;3.00;;;;;;;;;;4958686;28;94427;-80
2024/01/17 04:25:02;;;;;;;8.00;3.13;;;;;;;;;;4944575;28;95741;-80
2024/01/17 04:27:31;;;;;;;8.68;2.80;;;;;;;;;;4963003;28;92375;-78
2024/01/17 04:29:58;;;;;;;8.30;3.25;;;;;;;;;;4962553;28;92476;-79
2024/01/17 04:32:26;;;;;;;8.40;3.25;;;;;;;;;;4961833;28;92712;-79
2024/01/17 04:34:52;;;;;;;;;;;;;;;;;;4958348;28;92039;-78
2024/01/17 04:37:19;;;;;;;9.15;3.22;;;;;;;;;;4962336;28;119402;-77
2024/01/17 04:39:45;;;;;;;8.00;3.20;;;;;;;;;;4961614;28;94307;-78
2024/01/17 04:42:12;;;;;;;8.13;2.92;;;;;;;;;;4964420;28;92197;-79
2024/01/17 04:44:39;;;;;;;7.90;2.90;;;;;;;;;;4961574;28;92775;-79
2024/01/17 04:47:06;;;;;;;7.88;2.80;;;;;;;;;;4961003;28;94880;-79
2024/01/17 04:49:32;;;;;;;6.45;2.80;;;;;;;;;;4963323;28;94878;-79
2024/01/17 04:51:59;;;;;;;6.82;3.17;;;;;;;;;;4961616;28;93057;-78
2024/01/17 04:54:30;;;;;;;7.68;2.97;;;;;;;;;;4961877;28;92512;-80
2024/01/17 04:56:57;;;;;;;7.88;3.17;;;;;;;;;;4978317;28;93339;-80
2024/01/17 04:59:24;;;;;;;7.15;2.90;;;;;;;;;;4961946;28;92795;-79
2024/01/17 05:01:50;;;;;;;9.02;2.90;;;;;;;;;;4960903;28;92384;-78
2024/01/17 05:04:17;;;;;;;7.50;3.08;;;;;;;;;;4965868;28;92766;-78
2024/01/17 05:06:44;;;;;;;6.97;3.10;;;;;;;;;;4943665;28;92791;-80
2024/01/17 05:09:11;;;;;;;7.32;2.72;;;;;;;;;;4960898;28;92408;-79
2024/01/17 05:11:38;;;;;;;7.60;2.90;;;;;;;;;;4963479;28;97707;-79
2024/01/17 05:14:05;;;;;;;7.45;2.72;;;;;;;;;;4961754;28;92052;-80
2024/01/17 05:16:32;;;;;;;6.90;2.80;;;;;;;;;;4943799;28;92886;-80
2024/01/17 05:18:59;;;;;;;5.95;2.67;;;;;;;;;;4944638;28;96188;-80
2024/01/17 05:21:25;;;;;;;9.10;2.92;;;;;;;;;;4961717;28;92015;-80
2024/01/17 05:23:52;;;;;;;8.75;3.17;;;;;;;;;;4964102;28;92894;-78
2024/01/17 05:26:19;;;;;;;10.10;3.00;;;;;;;;;;4960020;28;92344;-79
2024/01/17 05:28:46;;;;;;;6.97;2.70;;;;;;;;;;4961558;28;92460;-79
2024/01/17 05:31:12;;;;;;;7.78;3.00;;;;;;;;;;4960173;28;95104;-79
2024/01/17 05:33:39;;;;;;;7.15;2.90;;;;;;;;;;4960436;28;92016;-79
2024/01/17 05:36:06;;;;;;;7.13;2.75;;;;;;;;;;4953292;28;94686;-79
2024/01/17 05:38:32;;;;;;;7.90;3.03;;;;;;;;;;4939797;28;95644;-79
2024/01/17 05:40:59;;;;;;;8.40;3.00;;;;;;;;;;4955902;28;92606;-79
2024/01/17 05:43:25;;;;;;;6.40;2.55;;;;;;;;;;4959782;28;94500;-79
2024/01/17 05:45:52;;;;;;;6.20;2.60;;;;;;;;;;4963674;28;93254;-79
2024/01/17 05:48:19;;;;;;;6.60;2.90;;;;;;;;;;4959782;28;95211;-79
2024/01/17 05:50:45;;;;;;;7.40;2.70;;;;;;;;;;4942883;28;93323;-78
2024/01/17 05:53:12;;;;;;;7.90;2.70;;;;;;;;;;4960518;28;91630;-79
2024/01/17 05:55:38;;;;;;;5.65;2.53;;;;;;;;;;4966688;28;92409;-79
2024/01/17 05:58:05;;;;;;;7.65;2.67;;;;;;;;;;4980952;28;92636;-79
2024/01/17 06:00:32;;;;;;;7.15;2.78;;;;;;;;;;4979232;28;94855;-78
2024/01/17 06:02:58;;;;;;;6.80;2.78;;;;;;;;;;4979434;28;97627;-78
2024/01/17 06:05:25;;;;;;;6.57;2.60;;;;;;;;;;4962927;28;94937;-79
2024/01/17 06:07:52;;;;;;;5.85;2.65;;;;;;;;;;4979671;28;92799;-79
2024/01/17 06:10:18;;;;;;;6.95;2.80;;;;;;;;;;4959885;28;92760;-78
2024/01/17 06:12:45;;;;;;;6.60;2.80;;;;;;;;;;4977534;28;92204;-78
2024/01/17 06:15:12;;;;;;;7.60;2.90;;;;;;;;;;4979425;28;95128;-80
2024/01/17 06:17:39;;;;;;;6.00;2.50;;;;;;;;;;4980216;28;91384;-79
2024/01/17 06:20:09;;;;;;;7.75;2.78;;;;;;;;;;4980873;28;92135;-80
2024/01/17 06:22:36;;;;;;;8.90;2.67;;;;;;;;;;4971430;28;92175;-80
2024/01/17 06:25:06;;;;;;;7.20;2.90;;;;;;;;;;4958171;28;95019;-80
2024/01/17 06:27:33;;;;;;;8.75;2.75;;;;;;;;;;4961390;28;92497;-79
2024/01/17 06:30:00;;;;;;;6.55;2.40;;;;;;;;;;4964076;28;93037;-80
2024/01/17 06:32:27;;;;;;;10.32;2.90;;;;;;;;;;4943171;28;92196;-80
2024/01/17 06:34:54;;;;;;;6.63;2.60;;;;;;;;;;4954428;28;94375;-78
2024/01/17 06:37:20;;;;;;;5.85;2.50;;;;;;;;;;4954530;28;92998;-78
2024/01/17 06:39:47;;;;;;;5.15;2.40;;;;;;;;;;4958881;28;92388;-79
2024/01/17 06:42:16;;;;;;;6.30;2.47;;;;;;;;;;4959927;28;95172;-80
2024/01/17 06:44:43;;;;;;;6.72;2.78;;;;;;;;;;4942593;28;95321;-79
2024/01/17 06:47:09;;;;;;;6.43;2.78;;;;;;;;;;4960107;28;92139;-80
2024/01/17 06:49:36;;;;;;;7.30;3.08;;;;;;;;;;4958136;28;95127;-79
2024/01/17 06:52:03;;;;;;;6.47;2.63;;;;;;;;;;4961875;28;92631;-81
2024/01/17 06:54:31;;;;;;;6.38;2.55;;;;;;;;;;4959199;28;92791;-79
2024/01/17 06:56:57;;;;;;;7.18;2.70;;;;;;;;;;4964237;28;94647;-80
2024/01/17 06:59:24;;;;;;;5.95;2.55;;;;;;;;;;4959199;28;92131;-79
2024/01/17 07:01:50;;;;;;;6.43;2.70;;;;;;;;;;4958861;28;94406;-77
2024/01/17 07:04:17;;;;;;;9.40;2.65;;;;;;;;;;4959345;28;95043;-79
2024/01/17 07:06:43;;;;;;;6.22;2.47;;;;;;;;;;4960481;28;91899;-79
2024/01/17 07:09:11;;;;;;;9.32;2.67;;;;;;;;;;4959439;28;92462;-80
2024/01/17 07:11:37;;;;;;;8.80;2.90;;;;;;;;;;4967055;28;94980;-78
2024/01/17 07:14:04;;;;;;;6.72;2.70;;;;;;;;;;4982226;28;94512;-80
2024/01/17 07:16:30;;;;;;;6.45;2.60;;;;;;;;;;4978961;28;92981;-79
2024/01/17 07:18:58;;;;;;;7.70;2.50;;;;;;;;;;4971528;28;92384;-79
2024/01/17 07:21:25;;;;;;;8.90;2.70;;;;;;;;;;4958862;28;95422;-79
2024/01/17 07:23:52;;;;;;;7.70;2.58;;;;;;;;;;4961019;28;93212;-79
2024/01/17 07:26:18;;;;;;;6.75;2.97;;;;;;;;;;4958802;28;92086;-79
2024/01/17 07:28:45;;;;;;;7.45;2.83;;;;;;;;;;4958219;28;95187;-79
2024/01/17 07:31:12;;;;;;;9.63;2.70;;;;;;;;;;4959575;28;95185;-78
2024/01/17 07:33:38;;;;;;;8.43;2.80;;;;;;;;;;4961787;28;92232;-78
2024/01/17 07:36:05;;;;;;;6.53;2.58;;;;;;;;;;4953407;28;92712;-79
2024/01/17 07:38:32;;;;;;;6.57;2.90;;;;;;;;;;4956546;28;94545;-79
2024/01/17 07:40:59;;;;;;;8.07;2.83;;;;;;;;;;4960414;28;94699;-78
2024/01/17 07:43:25;;;;;;;10.00;2.80;;;;;;;;;;4961415;28;93399;-77
2024/01/17 07:45:52;;;;;;;10.25;2.90;;;;;;;;;;4969768;28;92406;-78
2024/01/17 07:48:19;;;;;;;7.97;2.90;;;;;;;;;;4970918;28;92314;-78
2024/01/17 07:50:47;;;;;;;7.93;2.85;;;;;;;;;;4980214;28;92996;-78
2024/01/17 07:53:14;;;;;;;9.63;2.92;;;;;;;;;;4964037;28;92289;-78
2024/01/17 07:55:40;;;;;;;7.57;2.90;;;;;;;;;;4969110;28;92468;-78
2024/01/17 07:58:07;;;;;;;7.93;2.97;;;;;;;;;;4962124;28;92410;-79
2024/01/17 08:00:34;;;;;;;8.50;2.95;;;;;;;;;;4976847;28;92726;-79
2024/01/17 08:03:01;;;;;;;7.18;2.60;;;;;;;;;;4960807;28;95779;-80
2024/01/17 08:05:28;;;;;;;6.63;2.83;;;;;;;;;;4945378;28;92597;-79
2024/01/17 08:07:55;;;;;;;6.47;2.70;;;;;;;;;;4960561;28;94973;-79
2024/01/17 08:10:22;;;;;;;8.60;2.60;;;;;;;;;;4961399;28;92745;-80
2024/01/17 08:12:48;;;;;;;5.95;2.42;;;;;;;;;;4979189;28;92628;-78
2024/01/17 08:15:15;;;;;;;5.88;2.40;;;;;;;;;;4968253;28;92500;-80
2024/01/17 08:17:43;;;;;;;5.40;2.53;;;;;;;;;;4958480;28;92689;-80
2024/01/17 08:20:12;;;;;;;6.75;2.45;;;;;;;;;;4965096;28;95095;-78
2024/01/17 08:22:40;;;;;;;7.00;2.55;;;;;;;;;;4981338;28;93001;-77
2024/01/17 08:25:07;;;;;;;6.25;2.60;;;;;;;;;;4982214;28;92563;-79
2024/01/17 08:27:34;;;;;;;5.25;2.33;;;;;;;;;;4970248;28;94725;-78
2024/01/17 08:30:01;;;;;;;5.47;2.30;;;;;;;;;;4944310;28;95731;-78
2024/01/17 08:32:28;;;;;;;6.90;2.60;;;;;;;;;;4962053;28;92681;-79
2024/01/17 08:34:55;;;;;;;;;;;;;;;;;;4955921;28;93230;-79
2024/01/17 08:37:22;;;;;;;5.43;2.20;;;;;;;;;;4962251;28;113962;-78
2024/01/17 08:39:48;;;;;;;5.80;2.25;;;;;;;;;;4964174;28;92327;-78
2024/01/17 08:42:15;;;;;;;5.70;2.28;;;;;;;;;;4961473;28;92859;-78
2024/01/17 08:44:42;;;;;;;5.70;2.55;;;;;;;;;;4961594;28;94854;-76
2024/01/17 08:47:09;;;;;;;5.13;2.40;;;;;;;;;;4961874;28;92191;-75
2024/01/17 08:49:39;;;;;;;6.15;2.55;;;;;;;;;;4962356;28;92631;-78
2024/01/17 08:52:07;;;;;;;6.38;2.30;;;;;;;;;;4957892;28;94626;-79
2024/01/17 08:54:34;;;;;;;5.72;2.20;;;;;;;;;;4961044;28;95274;-78
2024/01/17 08:57:02;;;;;;;6.80;2.40;;;;;;;;;;4970240;28;93586;-79
2024/01/17 08:59:28;;;;;;;5.13;2.20;;;;;;;;;;4960376;28;92458;-80
2024/01/17 09:01:56;;;;;;;8.77;2.45;;;;;;;;;;4963572;28;92236;-80
2024/01/17 09:04:23;;;;;;;4.88;2.15;;;;;;;;;;4960968;28;92552;-79
2024/01/17 09:06:50;;;;;;;5.13;2.30;;;;;;;;;;4960556;28;95306;-78
2024/01/17 09:09:17;;;;;;;6.13;2.45;;;;;;;;;;4961250;28;94711;-78
2024/01/17 09:11:44;;;;;;;5.30;2.47;;;;;;;;;;4970856;28;92385;-78
2024/01/17 09:14:10;;;;;;;5.40;2.22;;;;;;;;;;4978851;28;92655;-78
2024/01/17 09:16:37;;;;;;;6.05;2.22;;;;;;;;;;4977285;28;95528;-78
2024/01/17 09:19:04;;;;;;;5.32;2.28;;;;;;;;;;4968848;28;92194;-79
2024/01/17 09:21:31;;;;;;;5.72;2.50;;;;;;;;;;4943972;28;95147;-79
2024/01/17 09:23:58;;;;;;;6.00;2.28;;;;;;;;;;4965089;28;93200;-79
2024/01/17 09:26:25;;;;;;;4.85;2.20;;;;;;;;;;4959484;28;92180;-78
2024/01/17 09:28:52;;;;;;;5.47;2.30;;;;;;;;;;4959850;28;95571;-78
2024/01/17 09:31:18;;;;;;;6.07;2.75;;;;;;;;;;4961816;28;92070;-77
2024/01/17 09:33:45;;;;;;;5.93;2.40;;;;;;;;;;4962356;28;92325;-78
2024/01/17 09:36:11;;;;;;;5.80;2.60;;;;;;;;;;4950399;28;99636;-79
2024/01/17 09:38:38;;;;;;;5.97;2.53;;;;;;;;;;4949914;28;92753;-80
2024/01/17 09:41:05;;;;;;;6.70;2.58;;;;;;;;;;4960587;28;94839;-78
2024/01/17 09:43:31;;;;;;;6.32;2.55;;;;;;;;;;4963290;28;95530;-80
2024/01/17 09:46:00;;;;;;;5.82;2.47;;;;;;;;;;4961623;28;92752;-79
2024/01/17 09:48:26;;;;;;;6.78;2.78;;;;;;;;;;4960138;28;92725;-79
2024/01/17 09:50:53;;;;;;;6.18;2.58;;;;;;;;;;4944473;28;92280;-79
2024/01/17 09:53:27;;;;;;;5.35;2.50;;;;;;;;;;4962058;28;92478;-80
2024/01/17 09:55:56;;;;;;;5.95;2.40;;;;;;;;;;4968288;28;95796;-79
2024/01/17 09:58:23;;;;;;;8.57;2.72;;;;;;;;;;4981942;28;91380;-79
2024/01/17 10:00:50;;;;;;;5.97;2.45;;;;;;;;;;4964817;28;92210;-80
2024/01/17 10:03:20;;;;;;;5.88;2.47;;;;;;;;;;4980833;28;93019;-79
2024/01/17 10:05:51;;;;;;;6.75;2.53;;;;;;;;;;4983020;28;94778;-78
2024/01/17 10:08:18;;;;;;;4.90;2.30;;;;;;;;;;4967013;28;94862;-79
2024/01/17 10:10:44;;;;;;;6.13;2.67;;;;;;;;;;4962717;28;92606;-80
2024/01/17 10:13:11;;;;;;;5.45;2.40;;;;;;;;;;4980884;28;92447;-79
2024/01/17 10:15:47;;;;;;;5.30;2.40;;;;;;;;;;4980529;28;93812;-79
2024/01/17 10:18:15;;;;;;;4.57;2.40;;;;;;;;;;4980196;28;92203;-81
2024/01/17 10:20:42;;;;;;;5.60;2.45;;;;;;;;;;4979329;28;94929;-80
2024/01/17 10:23:08;;;;;;;6.25;2.50;;;;;;;;;;4962128;28;91377;-77
2024/01/17 10:25:39;;;;;;;5.32;2.42;;;;;;;;;;4960997;28;92199;-79
2024/01/17 10:28:06;;;;;;;6.25;2.50;;;;;;;;;;4964007;28;92768;-79
2024/01/17 10:30:32;;;;;;;5.55;2.40;;;;;;;;;;4960073;28;94370;-77
2024/01/17 10:33:00;;;;;;;6.95;2.33;;;;;;;;;;4945576;28;94880;-78
2024/01/17 10:35:28;;;;;;;6.47;2.67;;;;;;;;;;4955858;28;94999;-79
2024/01/17 10:37:55;;;;;;;8.32;2.67;;;;;;;;;;4960869;28;92269;-79
2024/01/17 10:40:21;;;;;;;6.95;2.55;;;;;;;;;;4962163;28;92393;-78
2024/01/17 10:43:02;;;;;;;6.63;2.50;;;;;;;;;;4960868;28;97948;-79
2024/01/17 10:45:32;;;;;;;6.28;2.80;;;;;;;;;;4962727;28;92195;-79
2024/01/17 10:47:59;;;;;;;6.30;2.72;;;;;;;;;;4963424;28;93248;-78
2024/01/17 10:50:26;;;;;;;6.28;2.53;;;;;;;;;;4965085;28;93035;-79
2024/01/17 10:52:55;;;;;;;7.32;2.80;;;;;;;;;;4962668;28;92519;-78
2024/01/17 10:55:25;;;;;;;11.35;2.88;;;;;;;;;;4961897;28;95127;-79
2024/01/17 10:57:54;;;;;;;7.15;2.60;;;;;;;;;;4982732;28;92019;-78
2024/01/17 11:00:28;;;;;;;8.60;3.05;;;;;;;;;;4981913;28;92103;-79
2024/01/17 11:02:55;;;;;;;6.63;2.80;;;;;;;;;;4979692;28;97551;-80
2024/01/17 11:05:24;;;;;;;5.88;2.72;;;;;;;;;;4962751;28;92547;-79
2024/01/17 11:07:52;;;;;;;6.78;2.85;;;;;;;;;;4962311;28;92724;-79
2024/01/17 11:10:19;;;;;;;6.55;2.95;;;;;;;;;;4961741;28;92765;-78
2024/01/17 11:12:46;;;;;;;6.80;2.63;;;;;;;;;;4971735;28;91473;-80
2024/01/17 11:15:14;;;;;;;7.50;2.90;;;;;;;;;;4960257;28;92237;-81
2024/01/17 11:17:41;;;;;;;7.00;2.60;;;;;;;;;;4960719;28;92344;-80
2024/01/17 11:20:10;;;;;;;9.23;3.08;;;;;;;;;;4960975;28;94478;-79
2024/01/17 11:22:38;;;;;;;8.50;2.85;;;;;;;;;;4943294;28;95049;-79
2024/01/17 11:25:14;;;;;;;8.73;2.90;;;;;;;;;;4960203;28;92198;-78
2024/01/17 11:27:45;;;;;;;8.30;2.85;;;;;;;;;;4960903;28;92678;-78
2024/01/17 11:30:32;;;;;;;5.90;2.50;;;;;;;;;;4960947;28;95543;-79
2024/01/17 11:33:05;;;;;;;9.57;2.90;;;;;;;;;;4963061;28;92106;-83
2024/01/17 11:35:45;;;;;;;6.93;2.90;;;;;;;;;;4961377;28;95268;-81
2024/01/17 11:38:24;;;;;;;6.55;2.70;;;;;;;;;;4964815;28;91283;-81
2024/01/17 11:40:58;;;;;;;11.20;2.95;;;;;;;;;;4964797;28;96423;-80
2024/01/17 11:43:33;;;;;;;9.73;3.10;;;;;;;;;;4964715;28;93050;-81
2024/01/17 11:46:01;;;;;;;10.73;2.90;;;;;;;;;;4960990;28;94762;-81
2024/01/17 11:48:31;;;;;;;6.63;2.80;;;;;;;;;;4946261;28;97186;-81
2024/01/17 11:51:02;;;;;;;7.85;2.85;;;;;;;;;;4946814;28;95545;-80
2024/01/17 11:53:29;;;;;;;6.07;2.58;;;;;;;;;;4965098;28;92512;-81
2024/01/17 11:55:58;;;;;;;7.07;2.80;;;;;;;;;;4975551;28;92483;-81
2024/01/17 11:58:40;;;;;;;5.93;2.55;;;;;;;;;;4982023;28;92151;-81
2024/01/17 12:01:27;;;;;;;7.40;2.42;;;;;;;;;;4966630;28;94564;-81
2024/01/17 12:03:54;;;;;;;8.27;3.00;;;;;;;;;;4959235;28;94851;-79
2024/01/17 12:06:21;;;;;;;6.68;2.65;;;;;;;;;;4963442;28;92245;-80
2024/01/17 12:08:49;;;;;;;7.82;2.50;;;;;;;;;;4946582;28;99042;-80
2024/01/17 12:11:16;;;;;;;5.80;2.50;;;;;;;;;;4967024;28;95867;-81
2024/01/17 12:13:43;;;;;;;6.80;2.60;;;;;;;;;;4979531;28;91920;-80
2024/01/17 12:16:11;;;;;;;6.28;2.55;;;;;;;;;;4964351;28;92696;-81
2024/01/17 12:18:37;;;;;;;6.68;2.70;;;;;;;;;;4965195;28;94838;-81
2024/01/17 12:21:04;;;;;;;6.97;2.72;;;;;;;;;;4960817;28;92408;-80
2024/01/17 12:23:32;;;;;;;5.63;2.58;;;;;;;;;;4958105;28;95868;-80
2024/01/17 12:25:59;;;;;;;6.13;2.70;;;;;;;;;;4961808;28;92210;-81
2024/01/17 12:28:30;;;;;;;8.40;2.78;;;;;;;;;;4954223;28;92444;-81
2024/01/17 12:31:00;;;;;;;6.10;2.70;;;;;;;;;;4962935;28;92760;-81
2024/01/17 12:33:27;;;;;;;6.28;2.45;;;;;;;;;;4962863;28;98723;-81
2024/01/17 12:35:55;;;;;;;5.07;2.20;;;;;;;;;;4940360;28;95341;-79
2024/01/17 12:38:21;;;;;;;8.43;2.53;;;;;;;;;;4967006;28;94861;-81
2024/01/17 12:40:49;;;;;;;6.35;2.50;;;;;;;;;;4921532;28;94371;-81
2024/01/17 12:43:19;;;;;;;4.88;2.42;;;;;;;;;;4957254;28;92762;-81
2024/01/17 12:45:46;;;;;;;5.30;2.30;;;;;;;;;;4959730;28;92113;-83
2024/01/17 12:48:14;;;;;;;6.47;2.50;;;;;;;;;;4961049;28;94884;-81
2024/01/17 12:50:42;;;;;;;5.63;2.50;;;;;;;;;;4961222;28;92716;-80
2024/01/17 12:53:09;;;;;;;6.95;2.35;;;;;;;;;;4961725;28;91586;-81
2024/01/17 12:55:35;;;;;;;5.50;2.33;;;;;;;;;;4944389;28;93711;-80
2024/01/17 12:58:02;;;;;;;4.63;2.28;;;;;;;;;;4960780;28;93094;-81
2024/01/17 13:00:29;;;;;;;5.50;2.40;;;;;;;;;;4958835;28;94854;-81
2024/01/17 13:02:55;;;;;;;5.15;2.35;;;;;;;;;;4964386;28;94868;-79
2024/01/17 13:05:23;;;;;;;6.05;2.60;;;;;;;;;;4960839;28;92575;-80
2024/01/17 13:07:50;;;;;;;6.03;2.42;;;;;;;;;;4959676;28;92466;-80
2024/01/17 13:10:17;;;;;;;5.55;2.30;;;;;;;;;;4961214;28;92758;-80
2024/01/17 13:12:45;;;;;;;5.72;2.47;;;;;;;;;;4954588;28;92227;-80
2024/01/17 13:15:13;;;;;;;5.63;2.45;;;;;;;;;;4941106;28;92514;-79
2024/01/17 13:17:48;;;;;;;5.47;2.53;;;;;;;;;;4952254;28;91902;-80
2024/01/17 13:20:26;;;;;;;6.32;2.38;;;;;;;;;;4961646;28;92139;-80
2024/01/17 13:22:57;;;;;;;6.05;2.45;;;;;;;;;;4943742;28;99550;-80
2024/01/17 13:25:24;;;;;;;5.75;2.45;;;;;;;;;;4944663;28;97361;-80
2024/01/17 13:27:58;;;;;;;7.15;2.60;;;;;;;;;;4960310;28;94844;-80
2024/01/17 13:30:25;;;;;;;5.47;2.50;;;;;;;;;;4961320;28;92593;-80
2024/01/17 13:32:52;;;;;;;7.70;2.60;;;;;;;;;;4961125;28;92329;-80
2024/01/17 13:35:19;;;;;;;;;;;;;;;;;;4954032;28;95920;-81
2024/01/17 13:37:46;;;;;;;5.63;2.63;;;;;;;;;;4960789;28;105476;-80
2024/01/17 13:40:12;;;;;;;;;;;;;;;;;;4960895;28;92171;-81
2024/01/17 13:42:40;;;;;;;5.22;2.50;;;;;;;;;;4950950;28;112621;-81
2024/01/17 13:45:10;;;;;;;5.93;2.72;;;;;;;;;;4940604;28;94666;-80
2024/01/17 13:47:38;;;;;;;5.07;2.40;;;;;;;;;;4944813;28;92311;-80
2024/01/17 13:50:15;;;;;;;5.15;2.20;;;;;;;;;;4940206;28;95222;-80
2024/01/17 13:52:47;;;;;;;5.88;2.58;;;;;;;;;;4947483;28;92299;-81
2024/01/17 13:55:14;;;;;;;6.55;2.55;;;;;;;;;;4962238;28;92515;-81
2024/01/17 13:57:42;;;;;;;5.95;2.50;;;;;;;;;;4956113;28;92477;-80
2024/01/17 14:00:08;;;;;;;;;;;;;;;;;;4942351;28;92304;-80
2024/01/17 14:02:35;;;;;;;5.47;2.55;;;;;;;;;;4941199;28;93029;-80
2024/01/17 14:05:04;;;;;;;;;;;;;;;;;;4941199;28;92655;-80
2024/01/17 14:07:30;;;;;;;6.72;2.53;;;;;;;;;;4960290;28;91828;-80
2024/01/17 14:09:57;;;;;;;5.30;2.53;;;;;;;;;;4961487;28;93599;-80
2024/01/17 14:12:24;;;;;;;4.80;2.25;;;;;;;;;;4947996;28;92459;-80
2024/01/17 14:14:51;;;;;;;5.70;2.30;;;;;;;;;;4958221;28;94670;-81
2024/01/17 14:17:18;;;;;;;5.75;2.35;;;;;;;;;;4961150;28;92660;-81
2024/01/17 14:19:44;;;;;;;5.65;2.38;;;;;;;;;;4960874;28;92831;-80
2024/01/17 14:22:12;;;;;;;6.03;2.40;;;;;;;;;;4957362;28;92076;-79
2024/01/17 14:24:40;;;;;;;5.63;2.22;;;;;;;;;;4960248;28;92732;-80
2024/01/17 14:27:06;;;;;;;5.30;2.30;;;;;;;;;;4958792;28;92891;-81
2024/01/17 14:29:33;;;;;;;5.60;2.28;;;;;;;;;;4964145;28;92964;-80
2024/01/17 14:32:00;;;;;;;5.35;2.50;;;;;;;;;;4959555;28;91454;-81
2024/01/17 14:34:27;;;;;;;5.38;2.22;;;;;;;;;;4956777;28;92594;-81
2024/01/17 14:36:54;;;;;;;4.95;2.00;;;;;;;;;;4954230;28;95208;-80
2024/01/17 14:39:22;;;;;;;6.38;2.50;;;;;;;;;;4959138;28;94723;-81
2024/01/17 14:41:49;;;;;;;5.45;2.30;;;;;;;;;;4960707;28;94742;-81
2024/01/17 14:44:17;;;;;;;6.43;2.40;;;;;;;;;;4960959;28;92856;-81